Create Custom Reports and Graphics: Custom Report

Latest Observations

Map

15 Minute Data

South County Map

Map

15 Minute Data

Northern Sonoma County Latest

13 Stations

15 Minute Data | America/Los_Angeles
as of 1/23/20 1:40 AM PST
Station Date Time Temp (°F) RH (%) Dew Pt (°F) Wind Spd (mph) Wind Dir (°) Wind Gust (mph) Latest Rain (In) Daily Rain (In) Daily Min Temp (°F) Daily Max Temp (°F)
Cooley-Rockpile 1/23/20 0100 45.8   2.9 74   24 38.2   4.4 1.6 ESE | 120 3.5   4.2 0.00 0.00 45.6   2.9 46.8   3.5
Cooley Lower Remote 1/23/20 0045 47.4   1.6 80   13 41.5   2.4 1.6 NW | 325 2.5   0.7 0.00 0.00 47.2   1.6 48.6   2.7
Rancho Alexander-Cloverdale 1/23/20 0100 39.8   7.1 100   0 39.7   7.1 0.5 NNW | 335 1.5   2.1 0.00 0.00 39.2   7.4 41.1   6.7
Ranch 38 (Cloverdale-SE) 1/23/20 0100 44.3   2.1 95   5 42.9   3.4 2.4 N | 5 4.2   1.6 0.00 0.00 43.8   2.5 45.5   2.4
Hoffman - Geyserville 1/23/20 0100 39.9   8.0 97   0 39.1   8.1 1.1 WNW | 296 3.1   1.6 0.00 0.00 39.3   8.2 41.0   7.4
Geyserville Ranch 3 1/23/20 0100 41.8   6.7 100   0 41.8   6.7 2.9 WNW | 293 4.0   1.5 0.00 0.00 41.3   7.2 42.1   6.8
Ranch 40 (Geyserville-NE) 1/23/20 0100 46.3   0.9 89   11 43.3   3.9 3.0 NNW | 340 3.9   0.5 0.00 0.00 45.5   1.5 47.6   0.4
Geyserville - S (Nervo Station) 1/23/20 0100 44.0   3.9 100   0 44.0   3.9 0.0 N | 0 0.0   0.0 0.00 0.00 43.6   3.9 45.3   3.6
River Oaks (Lytton) 1/23/20 0130 40.0   8.6 100   0 40.0   8.6 0.1 W | 271 1.0   3.2 0.00 0.00 38.4   10.0 40.4   9.3
Piccolo - Alexander Valley 1/23/20 0100 41.0   7.9 100   0 41.0   7.9 0.0 NW | 313 0.4   3.1 0.00 0.00 40.6   8.1 42.0   7.6
Red Fan 1/23/20 0130 40.6   8.2 100   0 40.7   8.2 0.9 E | 89 2.1   0.2 0.00 0.00 40.2   8.7 42.2   7.5
Landslide 1/23/20 0130 39.7   9.7 100   0 39.7   9.7 0.0 N | 0 0.0   3.4 0.00 0.00 39.4   9.9 41.3   8.3
Dry Creek Valley 1/23/20 0100 41.4   5.9 100   0 41.4   5.9 3.0 NNW | 342 3.9   1.5 0.00 0.00 41.2   6.1 42.2   5.6
Max     47.4 100 44.0 3.0 - 4.2 0.00 0.00 47.2 48.6
Avg     42.5 95 41.0 1.3 - 2.3 0.00 - - -
Min     39.7 74 38.2 0.0 - 0.0 0.00 0.00 38.4 40.4

Central Sonoma County Latest

23 Stations

15 Minute Data | America/Los_Angeles
as of 1/23/20 1:40 AM PST
Station Date Time Temp (°F) RH (%) Dew Pt (°F) Wind Spd (mph) Wind Dir (°) Wind Gust (mph) Latest Rain (In) Daily Rain (In) Daily Min Temp (°F) Daily Max Temp (°F)
Healdsburg - S (Sodini) 1/23/20 0100 42.0   7.1 98   1 41.4   7.4 0.0 N | 0 0.0   0.0 0.00 0.00 41.6   7.2 43.2   6.5
Ranch 8 (Windsor-NW) 1/23/20 0100 44.5   4.1 93   0 42.5   4.1 2.4 NW | 323 4.7   3.2 0.00 0.00 44.2   4.3 44.8   4.2
Foothill Ranch 16 1/23/20 0100 41.2   7.8 99   1 40.9   8.2 0.0 S | 179 0.9   0.9 0.00 0.00 41.0   7.6 42.2   6.9
Airport Ranch 14 1/23/20 0130 42.2   6.2 99   1 42.0   6.4 0.2 NW | 322 1.1   1.1 0.00 0.00 41.2   7.2 42.7   6.5
Silk Road 1/23/20 0130 38.8   9.6 100   0 38.8   9.5 0.1 ESE | 123 1.2   0.5 0.00 0.00 38.5   9.0 40.2   8.2
Oak Meadows Ranch 5 1/23/20 0100 41.2   7.1 100   0 41.2   7.1 0.0 N | 0 0.0   1.6 0.00 0.00 40.9   7.0 42.4   6.5
Laughlin Rd (Windsor-South) 1/23/20 0130 42.7   5.7 3   0 -33.0   3.9 - - - 0.00 0.00 41.8   6.0 43.9   4.8
Barnes Rd (SE Fulton) 1/23/20 0130 41.6   6.6 99   0 41.2   6.8 0.8 N | 10 1.4   0.5 0.00 0.00 40.9   7.0 43.1   5.8
Crinella Ranch 21 1/23/20 0130 43.0   5.1 100   0 43.0   5.1 2.9 NNW | 347 4.6   4.6 0.00 0.00 42.0   5.7 43.7   4.4
Goldfields (NW Santa Rosa) 1/23/20 0130 42.8   5.5 100   0 42.8   5.5 3.2 NW | 322 4.9   4.9 0.00 0.00 42.1   5.7 43.3   5.1
Denner Ranch Base 1/23/20 0130 41.4   6.1 100   0 41.4   6.1 2.5 NNW | 332 4.4   2.0 0.00 0.00 41.0   6.0 42.1   6.1
Guerneville Road (Santa Rosa Plains) 1/23/20 0130 42.0   5.1 99   0 41.9   5.2 0.5 N | 350 1.6   0.7 0.00 0.00 41.2   5.7 43.0   4.7
Rich Ranch (Guerneville Rd) 1/23/20 0130 41.0   6.5 100   0 41.0   6.5 - - - - - 40.1   6.5 41.8   5.9
Occidental Rd (Sebastopol) 1/23/20 0100 41.7   4.9 100   0 41.7   4.9 0.9 NNW | 328 2.2   0.4 0.00 0.00 41.4   4.8 43.3   3.8
Garrison Ranch 12 1/23/20 0100 41.5   5.2 100   0 41.5   5.2 0.0 N | 0 0.0   0.0 0.00 0.00 41.3   5.2 42.9   4.4
Laughlin Rd (Guerneville) 1/23/20 0130 43.6   4.2 100   0 43.6   4.2 0.0 N | 0 0.0   1.2 0.00 0.00 43.5   4.3 44.5   3.5
Korbel Winery 1/23/20 0130 44.5   4.4 100   0 44.5   4.4 0.4 SW | 232 1.5   1.4 0.00 0.00 44.3   4.4 45.4   4.1
Shone Farms (Forestville) 1/23/20 0100 42.0   6.7 98   0 41.4   6.8 1.0 WSW | 254 2.4   0.0 0.00 0.00 40.9   5.8 45.3   4.5
Ranch 30 (Forestville-NE) 1/23/20 0100 42.4   5.0 100   0 42.4   5.1 0.0 N | 0 0.0   1.2 0.00 0.00 42.1   5.1 43.2   4.7
Dutton Ranch (Graton-West) 1/23/20 0130 40.2   6.1 100   0 40.2   6.1 0.3 WNW | 296 1.1   0.2 0.00 0.00 40.0   6.1 41.2   6.0
Mill Station Rd (Graton-South) 1/23/20 0130 38.9   6.5 99   1 38.7   6.7 0.8 ESE | 114 1.8   0.4 0.00 0.00 38.1   6.5 39.9   6.6
Burnside Road (Sebastopol Hills) 1/23/20 0130 45.0   2.1 99   1 44.8   2.3 0.1 E | 88 1.5   1.5 0.00 0.00 44.6   1.5 46.3   1.1
Hirsch Vineyards 1/23/20 0100 48.9   4.1 77   20 42.1   1.9 0.7 SSE | 160 2.4   1.3 0.00 0.00 48.6   4.0 49.4   3.9
Max     48.9 100 44.8 3.2 - 4.9 0.00 0.00 48.6 49.4
Avg     42.3 94 38.5 0.8 - 1.8 0.00 - - -
Min     38.8 3 -33.0 0.0 - 0.0 0.00 0.00 38.1 39.9

Southern Sonoma County Latest

14 Stations

15 Minute Data | America/Los_Angeles
as of 1/23/20 1:40 AM PST
Station Date Time Temp (°F) RH (%) Dew Pt (°F) Wind Spd (mph) Wind Dir (°) Wind Gust (mph) Latest Rain (In) Daily Rain (In) Daily Min Temp (°F) Daily Max Temp (°F)
Lower Bennett Valley 1/20/20 2300 40.2   0.6 99   1 39.9   1.0 0.1 S | 191 1.1   1.2 0.00 0.00 34.6   0.5 55.5   2.3
Kunde - Kenwood 1/23/20 0000 31.9   9.6 94   1 30.4   9.8 0.0 N | 0 0.0   0.0 0.00 0.00 28.2   8.4 59.6   12.2
Sonoma Valley (Bedrock) 1/23/20 0100 40.0   6.8 100   0 40.0   6.8 1.4 N | 0 2.4   2.4 0.00 0.00 39.4   6.9 41.4   6.7
Arnold (Sonoma) 1/23/20 0130 42.3   6.0 97   2 41.6   6.7 2.2 NNW | 341 3.2   2.1 0.00 0.00 41.7   6.2 44.4   4.9
Schellville 1/23/20 0100 40.6   9.9 98   1 40.1   10.2 0.0 N | 0 0.0   0.0 0.00 0.00 40.4   10.0 42.0   8.9
Napoli (Sonoma-SE) 1/23/20 0100 41.4   8.7 95   2 40.2   9.2 0.0 N | 0 0.0   0.0 0.00 0.00 40.4   9.2 43.1   7.9
Diamond R71 (Carneros) 1/23/20 0100 47.9   2.1 90   10 45.1   4.9 0.7 N | 4 1.7   2.0 0.00 0.00 45.9   4.0 48.2   2.3
Huichica Upper 1/23/20 0100 50.3   0.5 82   18 45.1   4.7 2.0 NNE | 30 2.9   3.2 - - 47.2   2.3 51.0   0.5
Huichica-Lower 1/23/20 0100 43.2   6.8 96   4 42.2   7.8 0.0 N | 5 0.7   2.4 0.00 0.00 43.0   6.8 44.8   5.6
Stony Point (West Rohnert Park) 1/23/20 0130 40.5   6.1 99   1 40.4   6.3 0.2 WNW | 289 1.1   1.4 0.00 0.00 40.2   6.2 42.4   5.5
Asellus (Penngrove) 1/23/20 0130 39.8   6.8 100   0 39.8   6.8 2.3 NNW | 329 3.1   3.1 0.00 0.00 39.3   7.0 41.3   6.2
Rodger's Creek 1/23/20 0100 49.8   1.5 82   18 44.6   3.8 3.4 NE | 49 4.3   2.4 0.00 0.00 49.3   1.2 51.0   2.4
Frates R10 (East Petaluma) 1/23/20 0100 40.0   7.7 100   0 39.9   7.8 0.1 NNE | 27 1.2   0.0 0.00 0.00 40.0   7.6 41.3   7.8
Sleepy Hollow-Lakeville 1/23/20 0100 40.9   9.3 98   0 40.4   9.3 0.3 WNW | 301 1.0   1.4 0.00 0.00 40.5   9.3 42.0   9.3
Max     50.3 100 45.1 3.4 - 4.3 0.00 0.00 49.3 51.0
Avg     43.1 95 41.6 1.1 - 1.8 0.00 - - -
Min     39.8 82 39.8 0.0 - 0.0 0.00 0.00 39.3 41.3